Aérodrome :
LOGIN :

S'inscrire | Disclaimer

   EN    FR    IT 

 










Légende :    VFR   VFR Marginal   IFR   IFR Intensif   IFR Très Intensif
Visi : 
Plafond : 
>= 8 km
>= 3000ft
5 à 8 km
1000 à 3000 ft
1500m à 5 km
500 à 1000 ft
800 à 1500m
200 à 500 ft
< 800m
< 200 ft
Symboles :   Orages  Brouillard  Fortes neiges  Fortes précipitations  Vent > 20 kt
SIGMETs :   Divers  Orages  Givrage  Turbulence  Onde Orograph.  Cendres Volcan.






- Altitude de l'aérodrome : 25 ft
- Code IATA : QCY


EGXC - RAF Coningsby

DERNIER METAR :
  • 231350Z 29022G39KT 9999 FEW030 09/01 Q1013 RMK BLU

METARs EXPIRÉS :
  • 231250Z 30024G35KT 9999 SCT025 09/04 Q1012 RMK BLU
  • 231150Z 29018KT 9999 -SHRA SCT018 BKN035 09/06 Q1010 RMK WHT

TAF COR TAF EGXC
Valide du 23 à 12h jusqu'au 24 à 06h UTC


231203Z 2312/2406 29017G28KT 9999 SCT030
PROB30
TEMPO 2312/2315 -SHRA SCT018
BECMG 2316/2318 27012KT
BECMG 2402/2404 6000 -RA BKN008
TEMPO 2404/2406 3000 RA BKN004



MET'MAP, la Météo Aéronautique d'un coup d'oeil ! - Copyright ORBIFLY Décembre 2007 - Disclaimer

ORBIFLY MET'MAP TEAM :

Programmation & Développement : Alexandra Zaïnal
Sur une idée originale de : Baudouin d'Aumeries
Assistance à la programmation : Marc-Olivier Méhu
Soutien technique & logistique : Manuel Goepfert

Contact : metmap@orbifly.com




SOURCES & CREDITS :

   NOAA